sensor_id;sensor_type;location;lat;lon;timestamp;temperature;humidity
32187;DHT22;18686;53.084;8.872;2022-12-18T00:00:06;18.30;97.60
32187;DHT22;18686;53.084;8.872;2022-12-18T00:02:40;18.30;97.60
32187;DHT22;18686;53.084;8.872;2022-12-18T00:05:09;18.30;97.70
32187;DHT22;18686;53.084;8.872;2022-12-18T00:07:37;18.30;97.60
32187;DHT22;18686;53.084;8.872;2022-12-18T00:10:06;18.30;97.70
32187;DHT22;18686;53.084;8.872;2022-12-18T00:12:34;18.30;97.70
32187;DHT22;18686;53.084;8.872;2022-12-18T00:15:03;18.30;97.70
32187;DHT22;18686;53.084;8.872;2022-12-18T00:17:32;18.30;97.70
32187;DHT22;18686;53.084;8.872;2022-12-18T00:20:01;18.30;97.70
32187;DHT22;18686;53.084;8.872;2022-12-18T00:22:30;18.30;97.70
32187;DHT22;18686;53.084;8.872;2022-12-18T00:24:58;18.30;97.70
32187;DHT22;18686;53.084;8.872;2022-12-18T00:27:26;18.30;97.70
32187;DHT22;18686;53.084;8.872;2022-12-18T00:29:55;18.30;97.80
32187;DHT22;18686;53.084;8.872;2022-12-18T00:32:23;18.20;97.80
32187;DHT22;18686;53.084;8.872;2022-12-18T00:34:51;18.20;97.80
32187;DHT22;18686;53.084;8.872;2022-12-18T00:37:20;18.20;97.80
32187;DHT22;18686;53.084;8.872;2022-12-18T00:39:50;18.20;97.80
32187;DHT22;18686;53.084;8.872;2022-12-18T00:42:19;18.20;97.90
32187;DHT22;18686;53.084;8.872;2022-12-18T00:45:19;18.20;97.90
32187;DHT22;18686;53.084;8.872;2022-12-18T00:47:56;18.20;98.00
32187;DHT22;18686;53.084;8.872;2022-12-18T00:50:25;18.20;98.00
32187;DHT22;18686;53.084;8.872;2022-12-18T00:52:54;18.20;98.00
32187;DHT22;18686;53.084;8.872;2022-12-18T00:55:22;18.20;98.10
32187;DHT22;18686;53.084;8.872;2022-12-18T00:57:51;18.20;98.10
32187;DHT22;18686;53.084;8.872;2022-12-18T01:00:19;18.20;98.10
32187;DHT22;18686;53.084;8.872;2022-12-18T01:02:48;18.10;98.10
32187;DHT22;18686;53.084;8.872;2022-12-18T01:05:16;18.10;98.20
32187;DHT22;18686;53.084;8.872;2022-12-18T01:07:44;18.20;98.20
32187;DHT22;18686;53.084;8.872;2022-12-18T01:10:14;18.20;98.20
32187;DHT22;18686;53.084;8.872;2022-12-18T01:12:42;18.20;98.20
32187;DHT22;18686;53.084;8.872;2022-12-18T01:15:12;18.20;98.20
32187;DHT22;18686;53.084;8.872;2022-12-18T01:17:42;18.10;98.20
32187;DHT22;18686;53.084;8.872;2022-12-18T01:20:11;18.20;98.40
32187;DHT22;18686;53.084;8.872;2022-12-18T01:22:40;18.20;98.50
32187;DHT22;18686;53.084;8.872;2022-12-18T01:25:08;18.20;98.20
32187;DHT22;18686;53.084;8.872;2022-12-18T01:27:38;18.20;98.00
32187;DHT22;18686;53.084;8.872;2022-12-18T01:30:07;18.10;98.00
32187;DHT22;18686;53.084;8.872;2022-12-18T01:32:36;18.10;98.00
32187;DHT22;18686;53.084;8.872;2022-12-18T01:35:05;18.10;98.30
32187;DHT22;18686;53.084;8.872;2022-12-18T01:37:33;18.10;98.10
32187;DHT22;18686;53.084;8.872;2022-12-18T01:40:01;18.10;98.10
32187;DHT22;18686;53.084;8.872;2022-12-18T01:42:30;18.10;98.20
32187;DHT22;18686;53.084;8.872;2022-12-18T01:45:05;18.10;98.20
32187;DHT22;18686;53.084;8.872;2022-12-18T01:47:38;18.10;98.20
32187;DHT22;18686;53.084;8.872;2022-12-18T01:50:09;18.10;98.30
32187;DHT22;18686;53.084;8.872;2022-12-18T01:52:38;18.10;98.70
32187;DHT22;18686;53.084;8.872;2022-12-18T01:55:09;18.10;98.40
32187;DHT22;18686;53.084;8.872;2022-12-18T01:57:38;18.10;98.50
32187;DHT22;18686;53.084;8.872;2022-12-18T02:00:13;18.10;98.50
32187;DHT22;18686;53.084;8.872;2022-12-18T02:02:43;18.10;98.50
32187;DHT22;18686;53.084;8.872;2022-12-18T02:05:14;18.10;98.50
32187;DHT22;18686;53.084;8.872;2022-12-18T02:07:52;18.10;98.50
32187;DHT22;18686;53.084;8.872;2022-12-18T02:10:30;18.10;98.60
32187;DHT22;18686;53.084;8.872;2022-12-18T02:13:10;18.10;98.60
32187;DHT22;18686;53.084;8.872;2022-12-18T02:15:47;18.00;98.60
32187;DHT22;18686;53.084;8.872;2022-12-18T02:18:21;18.10;98.60
32187;DHT22;18686;53.084;8.872;2022-12-18T02:20:55;18.10;98.70
32187;DHT22;18686;53.084;8.872;2022-12-18T02:23:40;18.10;98.70
32187;DHT22;18686;53.084;8.872;2022-12-18T02:26:16;18.10;98.70
32187;DHT22;18686;53.084;8.872;2022-12-18T02:28:52;18.10;99.00
32187;DHT22;18686;53.084;8.872;2022-12-18T02:31:23;18.00;99.00
32187;DHT22;18686;53.084;8.872;2022-12-18T02:33:55;18.10;99.00
32187;DHT22;18686;53.084;8.872;2022-12-18T02:36:25;18.00;99.00
32187;DHT22;18686;53.084;8.872;2022-12-18T02:38:56;18.10;99.10
32187;DHT22;18686;53.084;8.872;2022-12-18T02:41:28;18.00;99.20
32187;DHT22;18686;53.084;8.872;2022-12-18T02:44:00;18.00;99.10
32187;DHT22;18686;53.084;8.872;2022-12-18T02:46:33;18.00;99.10
32187;DHT22;18686;53.084;8.872;2022-12-18T02:49:20;18.00;99.30
32187;DHT22;18686;53.084;8.872;2022-12-18T02:51:53;18.00;99.10
32187;DHT22;18686;53.084;8.872;2022-12-18T02:54:36;18.00;99.10
32187;DHT22;18686;53.084;8.872;2022-12-18T02:57:15;18.00;99.10
32187;DHT22;18686;53.084;8.872;2022-12-18T02:59:51;18.00;99.20
32187;DHT22;18686;53.084;8.872;2022-12-18T03:02:26;18.00;99.20
32187;DHT22;18686;53.084;8.872;2022-12-18T03:05:01;18.00;99.20
32187;DHT22;18686;53.084;8.872;2022-12-18T03:07:40;18.00;99.20
32187;DHT22;18686;53.084;8.872;2022-12-18T03:10:15;18.00;99.30
32187;DHT22;18686;53.084;8.872;2022-12-18T03:12:50;18.00;99.30
32187;DHT22;18686;53.084;8.872;2022-12-18T03:15:23;18.00;99.30
32187;DHT22;18686;53.084;8.872;2022-12-18T03:18:02;18.00;99.30
32187;DHT22;18686;53.084;8.872;2022-12-18T03:20:33;18.00;99.40
32187;DHT22;18686;53.084;8.872;2022-12-18T03:23:07;18.00;99.40
32187;DHT22;18686;53.084;8.872;2022-12-18T03:25:39;18.00;99.40
32187;DHT22;18686;53.084;8.872;2022-12-18T03:28:14;18.00;99.50
32187;DHT22;18686;53.084;8.872;2022-12-18T03:30:44;18.00;99.50
32187;DHT22;18686;53.084;8.872;2022-12-18T03:33:17;17.90;99.50
32187;DHT22;18686;53.084;8.872;2022-12-18T03:35:50;17.90;99.50
32187;DHT22;18686;53.084;8.872;2022-12-18T03:38:18;18.00;99.60
32187;DHT22;18686;53.084;8.872;2022-12-18T03:40:58;18.00;99.60
32187;DHT22;18686;53.084;8.872;2022-12-18T03:43:37;18.00;99.60
32187;DHT22;18686;53.084;8.872;2022-12-18T03:46:14;18.00;99.80
32187;DHT22;18686;53.084;8.872;2022-12-18T03:48:49;18.00;99.90
32187;DHT22;18686;53.084;8.872;2022-12-18T03:51:25;18.00;99.90
32187;DHT22;18686;53.084;8.872;2022-12-18T03:53:58;18.00;99.90
32187;DHT22;18686;53.084;8.872;2022-12-18T03:56:35;18.00;99.90
32187;DHT22;18686;53.084;8.872;2022-12-18T03:59:08;18.00;99.90
32187;DHT22;18686;53.084;8.872;2022-12-18T04:01:41;18.00;99.90
32187;DHT22;18686;53.084;8.872;2022-12-18T04:04:13;18.00;99.90
32187;DHT22;18686;53.084;8.872;2022-12-18T04:06:43;18.00;99.90
32187;DHT22;18686;53.084;8.872;2022-12-18T04:09:14;18.00;99.90
32187;DHT22;18686;53.084;8.872;2022-12-18T04:11:46;17.90;99.90
32187;DHT22;18686;53.084;8.872;2022-12-18T04:14:17;17.90;99.90
32187;DHT22;18686;53.084;8.872;2022-12-18T04:16:49;17.90;99.90
32187;DHT22;18686;53.084;8.872;2022-12-18T04:19:21;17.90;99.90
32187;DHT22;18686;53.084;8.872;2022-12-18T04:21:51;17.90;99.90
32187;DHT22;18686;53.084;8.872;2022-12-18T04:24:20;17.90;99.90
32187;DHT22;18686;53.084;8.872;2022-12-18T04:27:00;17.90;99.90
32187;DHT22;18686;53.084;8.872;2022-12-18T04:29:33;17.90;99.90
32187;DHT22;18686;53.084;8.872;2022-12-18T04:32:02;17.90;99.90
32187;DHT22;18686;53.084;8.872;2022-12-18T04:34:31;17.90;99.90
32187;DHT22;18686;53.084;8.872;2022-12-18T04:37:00;17.90;99.90
32187;DHT22;18686;53.084;8.872;2022-12-18T04:39:29;17.90;99.90
32187;DHT22;18686;53.084;8.872;2022-12-18T04:42:04;17.90;99.90
32187;DHT22;18686;53.084;8.872;2022-12-18T04:44:34;17.90;99.90
32187;DHT22;18686;53.084;8.872;2022-12-18T04:47:04;17.90;99.90
32187;DHT22;18686;53.084;8.872;2022-12-18T04:49:32;17.90;99.90
32187;DHT22;18686;53.084;8.872;2022-12-18T04:52:00;17.90;99.90
32187;DHT22;18686;53.084;8.872;2022-12-18T04:54:28;17.90;99.90
32187;DHT22;18686;53.084;8.872;2022-12-18T04:56:57;17.90;99.90
32187;DHT22;18686;53.084;8.872;2022-12-18T04:59:26;17.90;99.90
32187;DHT22;18686;53.084;8.872;2022-12-18T05:01:55;17.90;99.90
32187;DHT22;18686;53.084;8.872;2022-12-18T05:04:24;17.90;99.90
32187;DHT22;18686;53.084;8.872;2022-12-18T05:06:52;17.90;99.90
32187;DHT22;18686;53.084;8.872;2022-12-18T05:09:21;17.90;99.90
32187;DHT22;18686;53.084;8.872;2022-12-18T05:11:49;17.90;99.90
32187;DHT22;18686;53.084;8.872;2022-12-18T05:14:17;17.90;99.90
32187;DHT22;18686;53.084;8.872;2022-12-18T05:16:46;17.90;99.90
32187;DHT22;18686;53.084;8.872;2022-12-18T05:19:15;17.90;99.90
32187;DHT22;18686;53.084;8.872;2022-12-18T05:21:43;17.90;99.90
32187;DHT22;18686;53.084;8.872;2022-12-18T05:24:12;17.90;99.90
32187;DHT22;18686;53.084;8.872;2022-12-18T05:26:41;17.90;99.90
32187;DHT22;18686;53.084;8.872;2022-12-18T05:29:09;17.90;99.90
32187;DHT22;18686;53.084;8.872;2022-12-18T05:31:39;17.90;99.90
32187;DHT22;18686;53.084;8.872;2022-12-18T05:34:09;17.90;99.90
32187;DHT22;18686;53.084;8.872;2022-12-18T05:36:39;17.90;99.90
32187;DHT22;18686;53.084;8.872;2022-12-18T05:39:08;17.90;99.90
32187;DHT22;18686;53.084;8.872;2022-12-18T05:41:37;17.90;99.90
32187;DHT22;18686;53.084;8.872;2022-12-18T05:44:05;17.90;99.90
32187;DHT22;18686;53.084;8.872;2022-12-18T05:46:33;17.90;99.90
32187;DHT22;18686;53.084;8.872;2022-12-18T05:49:01;17.80;99.90
32187;DHT22;18686;53.084;8.872;2022-12-18T05:51:30;17.80;99.90
32187;DHT22;18686;53.084;8.872;2022-12-18T05:53:59;17.80;99.90
32187;DHT22;18686;53.084;8.872;2022-12-18T05:56:27;17.80;99.90
32187;DHT22;18686;53.084;8.872;2022-12-18T05:58:56;17.80;99.90
32187;DHT22;18686;53.084;8.872;2022-12-18T06:01:25;17.80;99.90
32187;DHT22;18686;53.084;8.872;2022-12-18T06:03:55;17.80;99.90
32187;DHT22;18686;53.084;8.872;2022-12-18T06:06:25;17.80;99.90
32187;DHT22;18686;53.084;8.872;2022-12-18T06:08:55;17.80;99.90
32187;DHT22;18686;53.084;8.872;2022-12-18T06:11:26;17.80;99.90
32187;DHT22;18686;53.084;8.872;2022-12-18T06:13:55;17.80;99.90
32187;DHT22;18686;53.084;8.872;2022-12-18T06:16:27;17.80;99.90
32187;DHT22;18686;53.084;8.872;2022-12-18T06:18:56;17.80;99.90
32187;DHT22;18686;53.084;8.872;2022-12-18T06:21:25;17.80;99.90
32187;DHT22;18686;53.084;8.872;2022-12-18T06:23:54;17.80;99.90
32187;DHT22;18686;53.084;8.872;2022-12-18T06:26:24;17.80;99.90
32187;DHT22;18686;53.084;8.872;2022-12-18T06:28:54;17.80;99.90
32187;DHT22;18686;53.084;8.872;2022-12-18T06:31:23;17.80;99.90
32187;DHT22;18686;53.084;8.872;2022-12-18T06:33:51;17.80;99.90
32187;DHT22;18686;53.084;8.872;2022-12-18T06:36:19;17.80;99.90
32187;DHT22;18686;53.084;8.872;2022-12-18T06:38:48;17.80;99.90
32187;DHT22;18686;53.084;8.872;2022-12-18T06:41:18;17.80;99.90
32187;DHT22;18686;53.084;8.872;2022-12-18T06:43:47;17.80;99.90
32187;DHT22;18686;53.084;8.872;2022-12-18T06:46:16;17.80;99.90
32187;DHT22;18686;53.084;8.872;2022-12-18T06:48:47;17.80;99.90
32187;DHT22;18686;53.084;8.872;2022-12-18T06:51:17;17.80;99.90
32187;DHT22;18686;53.084;8.872;2022-12-18T06:53:46;17.80;99.90
32187;DHT22;18686;53.084;8.872;2022-12-18T06:56:14;17.80;99.90
32187;DHT22;18686;53.084;8.872;2022-12-18T06:58:42;17.80;99.90
32187;DHT22;18686;53.084;8.872;2022-12-18T07:01:12;17.80;99.90
32187;DHT22;18686;53.084;8.872;2022-12-18T07:03:41;17.80;99.90
32187;DHT22;18686;53.084;8.872;2022-12-18T07:06:15;17.80;99.90
32187;DHT22;18686;53.084;8.872;2022-12-18T07:08:43;17.80;99.90
32187;DHT22;18686;53.084;8.872;2022-12-18T07:11:12;17.90;99.90
32187;DHT22;18686;53.084;8.872;2022-12-18T07:13:40;17.90;99.90
32187;DHT22;18686;53.084;8.872;2022-12-18T07:16:10;17.90;99.90
32187;DHT22;18686;53.084;8.872;2022-12-18T07:18:49;17.90;99.90
32187;DHT22;18686;53.084;8.872;2022-12-18T07:21:20;18.00;99.90
32187;DHT22;18686;53.084;8.872;2022-12-18T07:23:48;18.10;99.90
32187;DHT22;18686;53.084;8.872;2022-12-18T07:26:18;18.10;99.90
32187;DHT22;18686;53.084;8.872;2022-12-18T07:28:47;18.10;99.90
32187;DHT22;18686;53.084;8.872;2022-12-18T07:31:17;18.10;99.90
32187;DHT22;18686;53.084;8.872;2022-12-18T07:33:49;18.20;99.90
32187;DHT22;18686;53.084;8.872;2022-12-18T07:36:18;18.10;99.90
32187;DHT22;18686;53.084;8.872;2022-12-18T07:38:54;18.20;99.90
32187;DHT22;18686;53.084;8.872;2022-12-18T07:41:22;18.20;99.90
32187;DHT22;18686;53.084;8.872;2022-12-18T07:43:51;18.20;99.90
32187;DHT22;18686;53.084;8.872;2022-12-18T07:46:19;18.20;99.90
32187;DHT22;18686;53.084;8.872;2022-12-18T07:48:49;18.20;99.90
32187;DHT22;18686;53.084;8.872;2022-12-18T07:51:17;18.20;99.90
32187;DHT22;18686;53.084;8.872;2022-12-18T07:53:46;18.20;99.90
32187;DHT22;18686;53.084;8.872;2022-12-18T07:56:18;18.20;99.90
32187;DHT22;18686;53.084;8.872;2022-12-18T07:58:56;18.20;99.90
32187;DHT22;18686;53.084;8.872;2022-12-18T08:01:25;18.20;99.90
32187;DHT22;18686;53.084;8.872;2022-12-18T08:03:55;18.20;99.90
32187;DHT22;18686;53.084;8.872;2022-12-18T08:06:23;18.20;99.90
32187;DHT22;18686;53.084;8.872;2022-12-18T08:08:52;18.20;99.90
32187;DHT22;18686;53.084;8.872;2022-12-18T08:11:22;18.20;99.90
32187;DHT22;18686;53.084;8.872;2022-12-18T08:13:52;18.20;99.90
32187;DHT22;18686;53.084;8.872;2022-12-18T08:16:20;18.20;99.90
32187;DHT22;18686;53.084;8.872;2022-12-18T08:18:49;18.20;99.90
32187;DHT22;18686;53.084;8.872;2022-12-18T08:21:22;18.20;99.90
32187;DHT22;18686;53.084;8.872;2022-12-18T08:23:51;18.20;99.90
32187;DHT22;18686;53.084;8.872;2022-12-18T08:26:21;18.20;99.90
32187;DHT22;18686;53.084;8.872;2022-12-18T08:28:50;18.20;99.90
32187;DHT22;18686;53.084;8.872;2022-12-18T08:31:18;18.20;99.90
32187;DHT22;18686;53.084;8.872;2022-12-18T08:33:49;18.20;99.90
32187;DHT22;18686;53.084;8.872;2022-12-18T08:36:19;18.20;99.90
32187;DHT22;18686;53.084;8.872;2022-12-18T08:38:48;18.20;99.90
32187;DHT22;18686;53.084;8.872;2022-12-18T08:41:17;18.20;99.90
32187;DHT22;18686;53.084;8.872;2022-12-18T08:43:45;18.20;99.90
32187;DHT22;18686;53.084;8.872;2022-12-18T08:46:36;18.20;99.90
32187;DHT22;18686;53.084;8.872;2022-12-18T08:49:05;18.20;99.90
32187;DHT22;18686;53.084;8.872;2022-12-18T08:51:35;18.20;99.90
32187;DHT22;18686;53.084;8.872;2022-12-18T08:54:04;18.30;99.90
32187;DHT22;18686;53.084;8.872;2022-12-18T08:56:32;18.30;99.90
32187;DHT22;18686;53.084;8.872;2022-12-18T08:59:01;18.30;99.90
32187;DHT22;18686;53.084;8.872;2022-12-18T09:01:31;18.30;99.90
32187;DHT22;18686;53.084;8.872;2022-12-18T09:04:00;18.40;99.90
32187;DHT22;18686;53.084;8.872;2022-12-18T09:06:28;18.30;99.90
32187;DHT22;18686;53.084;8.872;2022-12-18T09:08:57;18.40;99.90
32187;DHT22;18686;53.084;8.872;2022-12-18T09:11:27;18.40;99.90
32187;DHT22;18686;53.084;8.872;2022-12-18T09:13:57;18.40;99.90
32187;DHT22;18686;53.084;8.872;2022-12-18T09:16:27;18.50;99.90
32187;DHT22;18686;53.084;8.872;2022-12-18T09:18:59;18.50;99.90
32187;DHT22;18686;53.084;8.872;2022-12-18T09:21:29;18.50;99.90
32187;DHT22;18686;53.084;8.872;2022-12-18T09:24:01;18.50;99.90
32187;DHT22;18686;53.084;8.872;2022-12-18T09:26:31;18.60;99.90
32187;DHT22;18686;53.084;8.872;2022-12-18T09:28:59;18.60;99.90
32187;DHT22;18686;53.084;8.872;2022-12-18T09:31:27;18.60;99.90
32187;DHT22;18686;53.084;8.872;2022-12-18T09:33:55;18.60;99.90
32187;DHT22;18686;53.084;8.872;2022-12-18T09:36:24;18.60;99.90
32187;DHT22;18686;53.084;8.872;2022-12-18T09:38:52;18.60;99.90
32187;DHT22;18686;53.084;8.872;2022-12-18T09:41:39;18.60;99.90
32187;DHT22;18686;53.084;8.872;2022-12-18T09:47:13;9.90;41.80
32187;DHT22;18686;53.084;8.872;2022-12-18T09:49:44;8.10;71.70
32187;DHT22;18686;53.084;8.872;2022-12-18T09:52:17;8.50;98.10
32187;DHT22;18686;53.084;8.872;2022-12-18T09:54:51;9.40;99.90
32187;DHT22;18686;53.084;8.872;2022-12-18T09:57:24;10.40;99.90
32187;DHT22;18686;53.084;8.872;2022-12-18T09:59:55;11.40;99.90
32187;DHT22;18686;53.084;8.872;2022-12-18T10:02:25;12.20;99.90
32187;DHT22;18686;53.084;8.872;2022-12-18T10:05:03;13.00;99.90
32187;DHT22;18686;53.084;8.872;2022-12-18T10:07:48;13.60;99.70
32187;DHT22;18686;53.084;8.872;2022-12-18T10:10:29;14.20;99.30
32187;DHT22;18686;53.084;8.872;2022-12-18T10:13:07;14.70;98.20
32187;DHT22;18686;53.084;8.872;2022-12-18T10:15:42;15.10;97.30
32187;DHT22;18686;53.084;8.872;2022-12-18T10:18:22;15.50;96.50
32187;DHT22;18686;53.084;8.872;2022-12-18T10:20:53;15.80;95.80
32187;DHT22;18686;53.084;8.872;2022-12-18T10:23:26;16.00;95.20
32187;DHT22;18686;53.084;8.872;2022-12-18T10:26:01;16.30;94.60
32187;DHT22;18686;53.084;8.872;2022-12-18T10:28:32;16.50;94.10
32187;DHT22;18686;53.084;8.872;2022-12-18T10:31:05;16.60;93.60
32187;DHT22;18686;53.084;8.872;2022-12-18T10:33:34;16.80;93.30
32187;DHT22;18686;53.084;8.872;2022-12-18T10:36:03;17.00;93.00
32187;DHT22;18686;53.084;8.872;2022-12-18T10:38:33;17.10;92.80
32187;DHT22;18686;53.084;8.872;2022-12-18T10:41:02;17.20;92.50
32187;DHT22;18686;53.084;8.872;2022-12-18T10:43:34;17.30;92.40
32187;DHT22;18686;53.084;8.872;2022-12-18T10:46:13;17.40;92.20
32187;DHT22;18686;53.084;8.872;2022-12-18T10:48:52;17.50;92.00
32187;DHT22;18686;53.084;8.872;2022-12-18T10:51:23;17.60;91.90
32187;DHT22;18686;53.084;8.872;2022-12-18T10:53:55;17.70;91.80
32187;DHT22;18686;53.084;8.872;2022-12-18T10:56:26;17.70;91.60
32187;DHT22;18686;53.084;8.872;2022-12-18T10:59:01;17.80;91.60
32187;DHT22;18686;53.084;8.872;2022-12-18T11:01:46;17.80;91.40
32187;DHT22;18686;53.084;8.872;2022-12-18T11:04:21;17.90;91.60
32187;DHT22;18686;53.084;8.872;2022-12-18T11:06:57;17.90;91.30
32187;DHT22;18686;53.084;8.872;2022-12-18T11:09:28;18.00;91.50
32187;DHT22;18686;53.084;8.872;2022-12-18T11:11:59;18.00;91.40
32187;DHT22;18686;53.084;8.872;2022-12-18T11:14:32;18.00;91.50
32187;DHT22;18686;53.084;8.872;2022-12-18T11:17:01;18.10;91.60
32187;DHT22;18686;53.084;8.872;2022-12-18T11:19:53;18.10;91.70
32187;DHT22;18686;53.084;8.872;2022-12-18T11:22:24;18.20;91.80
32187;DHT22;18686;53.084;8.872;2022-12-18T11:24:57;18.20;91.80
32187;DHT22;18686;53.084;8.872;2022-12-18T11:27:52;18.30;91.80
32187;DHT22;18686;53.084;8.872;2022-12-18T11:30:25;18.30;91.80
32187;DHT22;18686;53.084;8.872;2022-12-18T11:32:56;18.30;91.80
32187;DHT22;18686;53.084;8.872;2022-12-18T11:35:38;18.40;91.90
32187;DHT22;18686;53.084;8.872;2022-12-18T11:38:17;18.40;91.90
32187;DHT22;18686;53.084;8.872;2022-12-18T11:40:51;18.50;92.20
32187;DHT22;18686;53.084;8.872;2022-12-18T11:43:25;18.50;92.00
32187;DHT22;18686;53.084;8.872;2022-12-18T11:45:59;18.60;92.10
32187;DHT22;18686;53.084;8.872;2022-12-18T11:48:32;18.60;92.10
32187;DHT22;18686;53.084;8.872;2022-12-18T11:51:04;18.70;92.10
32187;DHT22;18686;53.084;8.872;2022-12-18T11:53:36;18.70;92.10
32187;DHT22;18686;53.084;8.872;2022-12-18T11:56:17;18.80;92.20
32187;DHT22;18686;53.084;8.872;2022-12-18T11:58:57;18.90;92.20
32187;DHT22;18686;53.084;8.872;2022-12-18T12:01:39;18.90;92.10
32187;DHT22;18686;53.084;8.872;2022-12-18T12:07:20;19.00;92.10
32187;DHT22;18686;53.084;8.872;2022-12-18T12:09:59;19.00;92.10
32187;DHT22;18686;53.084;8.872;2022-12-18T12:12:36;19.00;92.10
32187;DHT22;18686;53.084;8.872;2022-12-18T12:15:23;19.10;92.10
32187;DHT22;18686;53.084;8.872;2022-12-18T12:17:57;19.10;92.20
32187;DHT22;18686;53.084;8.872;2022-12-18T12:20:42;19.10;92.20
32187;DHT22;18686;53.084;8.872;2022-12-18T12:23:22;19.10;92.20
32187;DHT22;18686;53.084;8.872;2022-12-18T12:25:57;19.10;92.30
32187;DHT22;18686;53.084;8.872;2022-12-18T12:28:50;19.10;92.30
32187;DHT22;18686;53.084;8.872;2022-12-18T12:31:29;19.10;92.40
32187;DHT22;18686;53.084;8.872;2022-12-18T12:34:08;19.10;92.50
32187;DHT22;18686;53.084;8.872;2022-12-18T12:36:49;19.10;92.50
32187;DHT22;18686;53.084;8.872;2022-12-18T12:39:23;19.10;92.60
32187;DHT22;18686;53.084;8.872;2022-12-18T12:41:53;19.10;92.70
32187;DHT22;18686;53.084;8.872;2022-12-18T12:44:42;19.10;92.70
32187;DHT22;18686;53.084;8.872;2022-12-18T12:47:18;19.10;92.80
32187;DHT22;18686;53.084;8.872;2022-12-18T12:49:49;19.10;92.80
32187;DHT22;18686;53.084;8.872;2022-12-18T12:52:28;19.10;92.80
32187;DHT22;18686;53.084;8.872;2022-12-18T12:54:59;19.10;92.90
32187;DHT22;18686;53.084;8.872;2022-12-18T12:57:33;19.00;92.90
32187;DHT22;18686;53.084;8.872;2022-12-18T13:00:06;19.00;92.90
32187;DHT22;18686;53.084;8.872;2022-12-18T13:02:44;19.00;93.00
32187;DHT22;18686;53.084;8.872;2022-12-18T13:05:23;19.00;93.30
32187;DHT22;18686;53.084;8.872;2022-12-18T13:08:23;19.00;93.10
32187;DHT22;18686;53.084;8.872;2022-12-18T13:10:54;19.00;93.20
32187;DHT22;18686;53.084;8.872;2022-12-18T13:13:49;19.00;93.30
32187;DHT22;18686;53.084;8.872;2022-12-18T13:16:19;19.00;93.40
32187;DHT22;18686;53.084;8.872;2022-12-18T13:18:49;18.90;93.50
32187;DHT22;18686;53.084;8.872;2022-12-18T13:21:24;18.90;93.60
32187;DHT22;18686;53.084;8.872;2022-12-18T13:23:54;18.90;93.70
32187;DHT22;18686;53.084;8.872;2022-12-18T13:26:33;18.90;93.70
32187;DHT22;18686;53.084;8.872;2022-12-18T13:29:02;18.90;93.80
32187;DHT22;18686;53.084;8.872;2022-12-18T13:31:57;18.90;93.90
32187;DHT22;18686;53.084;8.872;2022-12-18T13:34:28;18.90;94.00
32187;DHT22;18686;53.084;8.872;2022-12-18T13:40:02;18.80;94.20
32187;DHT22;18686;53.084;8.872;2022-12-18T13:42:40;18.90;94.30
32187;DHT22;18686;53.084;8.872;2022-12-18T13:45:43;18.90;94.40
32187;DHT22;18686;53.084;8.872;2022-12-18T13:48:22;18.90;94.90
32187;DHT22;18686;53.084;8.872;2022-12-18T13:50:57;18.90;94.80
32187;DHT22;18686;53.084;8.872;2022-12-18T13:53:29;18.90;94.80
32187;DHT22;18686;53.084;8.872;2022-12-18T13:56:00;18.90;95.00
32187;DHT22;18686;53.084;8.872;2022-12-18T13:58:28;18.90;94.90
32187;DHT22;18686;53.084;8.872;2022-12-18T14:00:56;18.90;95.00
32187;DHT22;18686;53.084;8.872;2022-12-18T14:03:28;18.80;95.00
32187;DHT22;18686;53.084;8.872;2022-12-18T14:06:01;18.80;95.10
32187;DHT22;18686;53.084;8.872;2022-12-18T14:08:39;18.80;95.20
32187;DHT22;18686;53.084;8.872;2022-12-18T14:11:19;18.80;95.30
32187;DHT22;18686;53.084;8.872;2022-12-18T14:13:48;18.80;95.40
32187;DHT22;18686;53.084;8.872;2022-12-18T14:16:17;18.80;95.50
32187;DHT22;18686;53.084;8.872;2022-12-18T14:18:48;18.80;95.60
32187;DHT22;18686;53.084;8.872;2022-12-18T14:21:25;18.70;95.60
32187;DHT22;18686;53.084;8.872;2022-12-18T14:24:05;18.70;95.70
32187;DHT22;18686;53.084;8.872;2022-12-18T14:26:35;18.70;95.80
32187;DHT22;18686;53.084;8.872;2022-12-18T14:29:23;18.70;95.80
32187;DHT22;18686;53.084;8.872;2022-12-18T14:32:10;18.70;95.90
32187;DHT22;18686;53.084;8.872;2022-12-18T14:34:44;18.70;95.90
32187;DHT22;18686;53.084;8.872;2022-12-18T14:37:14;18.70;96.10
32187;DHT22;18686;53.084;8.872;2022-12-18T14:39:53;18.70;96.10
32187;DHT22;18686;53.084;8.872;2022-12-18T14:42:23;18.70;96.20
32187;DHT22;18686;53.084;8.872;2022-12-18T14:45:41;18.70;96.20
32187;DHT22;18686;53.084;8.872;2022-12-18T14:48:16;18.70;96.20
32187;DHT22;18686;53.084;8.872;2022-12-18T14:51:00;18.70;96.10
32187;DHT22;18686;53.084;8.872;2022-12-18T14:53:37;18.60;96.10
32187;DHT22;18686;53.084;8.872;2022-12-18T14:56:15;18.60;96.10
32187;DHT22;18686;53.084;8.872;2022-12-18T14:58:47;18.60;96.30
32187;DHT22;18686;53.084;8.872;2022-12-18T15:01:25;18.60;96.40
32187;DHT22;18686;53.084;8.872;2022-12-18T15:03:54;18.60;96.70
32187;DHT22;18686;53.084;8.872;2022-12-18T15:06:27;18.60;96.80
32187;DHT22;18686;53.084;8.872;2022-12-18T15:08:56;18.60;96.90
32187;DHT22;18686;53.084;8.872;2022-12-18T15:11:31;18.60;97.00
32187;DHT22;18686;53.084;8.872;2022-12-18T15:14:28;18.60;97.00
32187;DHT22;18686;53.084;8.872;2022-12-18T15:16:59;18.60;97.00
32187;DHT22;18686;53.084;8.872;2022-12-18T15:19:37;18.60;97.00
32187;DHT22;18686;53.084;8.872;2022-12-18T15:22:18;18.60;97.10
32187;DHT22;18686;53.084;8.872;2022-12-18T15:24:48;18.60;97.00
32187;DHT22;18686;53.084;8.872;2022-12-18T15:27:26;18.60;97.00
32187;DHT22;18686;53.084;8.872;2022-12-18T15:30:22;18.60;97.10
32187;DHT22;18686;53.084;8.872;2022-12-18T15:32:51;18.60;97.10
32187;DHT22;18686;53.084;8.872;2022-12-18T15:35:22;18.60;97.10
32187;DHT22;18686;53.084;8.872;2022-12-18T15:37:51;18.60;97.10
32187;DHT22;18686;53.084;8.872;2022-12-18T15:40:21;18.60;97.10
32187;DHT22;18686;53.084;8.872;2022-12-18T15:42:52;18.60;97.00
32187;DHT22;18686;53.084;8.872;2022-12-18T15:45:40;18.60;97.00
32187;DHT22;18686;53.084;8.872;2022-12-18T15:48:19;18.60;97.00
32187;DHT22;18686;53.084;8.872;2022-12-18T15:50:48;18.60;97.00
32187;DHT22;18686;53.084;8.872;2022-12-18T15:53:17;18.50;96.90
32187;DHT22;18686;53.084;8.872;2022-12-18T15:55:46;18.50;96.90
32187;DHT22;18686;53.084;8.872;2022-12-18T15:58:32;18.50;96.90
32187;DHT22;18686;53.084;8.872;2022-12-18T16:01:02;18.50;96.90
32187;DHT22;18686;53.084;8.872;2022-12-18T16:03:30;18.50;97.20
32187;DHT22;18686;53.084;8.872;2022-12-18T16:05:58;18.40;96.90
32187;DHT22;18686;53.084;8.872;2022-12-18T16:08:30;18.50;97.20
32187;DHT22;18686;53.084;8.872;2022-12-18T16:10:59;18.50;97.40
32187;DHT22;18686;53.084;8.872;2022-12-18T16:13:27;18.60;97.60